createdAt,value
2018-07-17T00:01:33.401Z,19.30
2018-07-17T00:04:02.020Z,19.20
2018-07-17T00:06:30.720Z,19.40
2018-07-17T00:08:59.248Z,19.30
2018-07-17T00:11:27.828Z,19.30
2018-07-17T00:13:56.416Z,19.10
2018-07-17T00:16:25.130Z,19.10
2018-07-17T00:18:54.024Z,19.10
2018-07-17T00:21:23.581Z,18.90
2018-07-17T00:23:52.261Z,18.90
2018-07-17T00:26:20.826Z,18.90
2018-07-17T00:28:49.466Z,19.00
2018-07-17T00:31:18.610Z,19.00
2018-07-17T00:33:47.217Z,19.00
2018-07-17T00:36:15.852Z,19.00
2018-07-17T00:38:44.442Z,19.00
2018-07-17T00:41:13.146Z,19.00
2018-07-17T00:43:41.761Z,19.00
2018-07-17T00:46:10.585Z,19.00
2018-07-17T00:48:39.199Z,18.70
2018-07-17T00:51:08.241Z,18.70
2018-07-17T00:53:36.901Z,18.80
2018-07-17T00:56:05.529Z,18.70
2018-07-17T00:58:34.089Z,18.60
2018-07-17T01:01:01.853Z,18.50
2018-07-17T01:03:35.908Z,18.30
2018-07-17T01:06:09.684Z,18.40
2018-07-17T01:08:43.581Z,18.50
2018-07-17T01:11:17.391Z,18.50
2018-07-17T01:13:53.183Z,18.30
2018-07-17T01:16:21.763Z,18.20
2018-07-17T01:18:50.420Z,18.30
2018-07-17T01:21:19.669Z,18.10
2018-07-17T01:23:48.389Z,18.00
2018-07-17T01:26:16.977Z,18.10
2018-07-17T01:28:45.548Z,18.00
2018-07-17T01:31:14.072Z,17.90
2018-07-17T01:33:42.627Z,17.80
2018-07-17T01:36:11.202Z,17.70
2018-07-17T01:38:39.875Z,17.80
2018-07-17T01:41:08.439Z,17.80
2018-07-17T01:43:37.091Z,17.80
2018-07-17T01:46:05.963Z,17.90
2018-07-17T01:48:34.661Z,17.90
2018-07-17T01:51:03.240Z,17.90
2018-07-17T01:53:31.851Z,17.90
2018-07-17T01:56:00.417Z,17.90
2018-07-17T01:58:28.964Z,17.80
2018-07-17T02:00:57.562Z,17.70
2018-07-17T02:03:26.048Z,17.80
2018-07-17T02:05:54.572Z,17.80
2018-07-17T02:08:23.491Z,17.80
2018-07-17T02:10:52.162Z,17.80
2018-07-17T02:13:20.836Z,17.80
2018-07-17T02:15:49.416Z,17.70
2018-07-17T02:18:17.997Z,17.90
2018-07-17T02:20:46.517Z,17.90
2018-07-17T02:23:15.061Z,17.80
2018-07-17T02:25:43.618Z,17.80
2018-07-17T02:28:12.288Z,17.80
2018-07-17T02:30:40.899Z,17.90
2018-07-17T02:33:09.614Z,17.90
2018-07-17T02:35:38.353Z,17.80
2018-07-17T02:38:06.909Z,17.70
2018-07-17T02:40:35.458Z,17.70
2018-07-17T02:43:04.077Z,17.70
2018-07-17T02:45:32.666Z,17.70
2018-07-17T02:48:01.492Z,17.60
2018-07-17T02:50:30.220Z,17.60
2018-07-17T02:52:58.831Z,17.50
2018-07-17T02:55:27.378Z,17.30
2018-07-17T02:57:56.013Z,17.30
2018-07-17T03:00:24.653Z,17.20
2018-07-17T03:02:53.303Z,17.00
2018-07-17T03:05:22.015Z,17.30
2018-07-17T03:07:50.880Z,17.20
2018-07-17T03:10:19.501Z,17.20
2018-07-17T03:12:48.615Z,17.40
2018-07-17T03:15:17.273Z,17.40
2018-07-17T03:17:45.845Z,17.30
2018-07-17T03:20:14.454Z,17.10
2018-07-17T03:22:43.027Z,17.10
2018-07-17T03:25:12.030Z,17.20
2018-07-17T03:27:40.626Z,17.20
2018-07-17T03:32:37.797Z,17.30
2018-07-17T03:35:06.797Z,17.20
2018-07-17T03:37:35.433Z,17.20
2018-07-17T03:40:04.421Z,17.20
2018-07-17T03:42:33.192Z,17.20
2018-07-17T03:45:01.768Z,17.10
2018-07-17T03:47:30.380Z,17.10
2018-07-17T03:49:58.899Z,17.10
2018-07-17T03:52:27.613Z,17.10
2018-07-17T03:54:56.347Z,17.10
2018-07-17T03:57:24.953Z,17.10
2018-07-17T03:59:53.496Z,17.10
2018-07-17T04:02:22.052Z,17.10
2018-07-17T04:04:50.737Z,17.00
2018-07-17T04:07:19.304Z,17.00
2018-07-17T04:09:48.231Z,17.10
2018-07-17T04:12:16.849Z,17.10
2018-07-17T04:14:45.551Z,17.00
2018-07-17T04:17:14.320Z,17.10
2018-07-17T04:22:11.240Z,17.00
2018-07-17T04:24:39.819Z,17.00
2018-07-17T04:27:08.422Z,17.00
2018-07-17T04:29:37.022Z,17.00
2018-07-17T04:32:05.964Z,17.00
2018-07-17T04:34:34.570Z,17.10
2018-07-17T04:37:03.180Z,17.10
2018-07-17T04:39:31.816Z,17.30
2018-07-17T04:42:00.896Z,17.50
2018-07-17T04:44:29.493Z,17.30
2018-07-17T04:46:58.059Z,17.20
2018-07-17T04:49:26.642Z,17.20
2018-07-17T04:51:55.516Z,17.10
2018-07-17T04:54:24.166Z,17.10
2018-07-17T04:56:52.776Z,17.10
2018-07-17T04:59:21.470Z,17.10
2018-07-17T05:01:50.122Z,17.30
2018-07-17T05:04:18.922Z,17.20
2018-07-17T05:06:47.556Z,17.30
2018-07-17T05:09:16.599Z,17.20
2018-07-17T05:11:45.214Z,17.20
2018-07-17T05:14:13.859Z,17.30
2018-07-17T05:16:42.543Z,17.50
2018-07-17T05:19:11.187Z,17.50
2018-07-17T05:21:39.840Z,17.50
2018-07-17T05:24:09.052Z,17.40
2018-07-17T05:26:38.170Z,17.50
2018-07-17T05:29:07.089Z,17.60
2018-07-17T05:31:35.601Z,17.60
2018-07-17T05:34:04.592Z,17.70
2018-07-17T05:36:33.280Z,17.70
2018-07-17T05:39:01.837Z,17.60
2018-07-17T05:41:30.602Z,17.60
2018-07-17T05:43:59.288Z,17.80
2018-07-17T05:46:28.001Z,17.80
2018-07-17T05:48:56.677Z,18.00
2018-07-17T05:51:25.362Z,17.90
2018-07-17T05:53:54.165Z,17.90
2018-07-17T05:56:22.837Z,18.00
2018-07-17T05:58:51.471Z,17.90
2018-07-17T06:01:20.096Z,17.90
2018-07-17T06:03:49.053Z,17.90
2018-07-17T06:06:17.843Z,18.10
2018-07-17T06:08:46.445Z,18.20
2018-07-17T06:11:15.164Z,18.20
2018-07-17T06:13:43.769Z,18.50
2018-07-17T06:16:12.433Z,18.60
2018-07-17T06:18:41.334Z,18.80
2018-07-17T06:21:10.417Z,18.60
2018-07-17T06:23:39.042Z,18.60
2018-07-17T06:26:07.706Z,18.60
2018-07-17T06:28:36.708Z,18.70
2018-07-17T06:31:05.478Z,18.90
2018-07-17T06:33:34.057Z,18.80
2018-07-17T06:36:02.829Z,18.90
2018-07-17T06:38:31.510Z,18.80
2018-07-17T06:41:00.813Z,18.80
2018-07-17T06:43:29.445Z,19.00
2018-07-17T06:48:26.591Z,19.30
2018-07-17T06:50:55.224Z,19.20
2018-07-17T06:53:24.260Z,19.30
2018-07-17T06:55:53.237Z,19.20
2018-07-17T06:58:21.892Z,19.20
2018-07-17T07:00:50.488Z,19.30
2018-07-17T07:03:19.216Z,19.40
2018-07-17T07:05:47.894Z,19.60
2018-07-17T07:08:16.980Z,19.80
2018-07-17T07:10:45.637Z,19.90
2018-07-17T07:13:14.284Z,19.70
2018-07-17T07:18:11.773Z,19.90
2018-07-17T07:20:40.407Z,20.00
2018-07-17T07:23:09.215Z,20.00
2018-07-17T07:25:37.769Z,19.90
2018-07-17T07:28:06.497Z,20.00
2018-07-17T07:30:35.077Z,20.10
2018-07-17T07:33:03.669Z,20.20
2018-07-17T07:35:32.378Z,20.30
2018-07-17T07:38:01.630Z,20.40
2018-07-17T07:40:30.243Z,20.30
2018-07-17T07:42:58.877Z,20.40
2018-07-17T07:45:27.725Z,20.50
2018-07-17T07:47:56.934Z,20.50
2018-07-17T07:50:26.133Z,20.80
2018-07-17T07:52:55.165Z,20.90
2018-07-17T07:57:52.816Z,20.70
2018-07-17T08:00:21.592Z,20.80
2018-07-17T08:02:50.208Z,20.90
2018-07-17T08:05:18.917Z,20.90
2018-07-17T08:07:47.535Z,20.90
2018-07-17T08:10:16.177Z,21.00
2018-07-17T08:15:13.621Z,21.30
2018-07-17T08:17:42.490Z,21.30
2018-07-17T08:20:11.082Z,21.10
2018-07-17T08:22:39.772Z,21.10
2018-07-17T08:25:08.636Z,21.40
2018-07-17T08:27:37.227Z,21.30
2018-07-17T08:30:05.890Z,21.40
2018-07-17T08:32:34.457Z,21.50
2018-07-17T08:35:03.063Z,21.40
2018-07-17T08:37:31.679Z,21.50
2018-07-17T08:40:00.695Z,21.50
2018-07-17T08:42:29.738Z,21.60
2018-07-17T08:44:58.803Z,21.70
2018-07-17T08:47:27.349Z,21.50
2018-07-17T08:49:56.003Z,21.50
2018-07-17T08:52:25.332Z,21.60
2018-07-17T08:54:54.078Z,21.70
2018-07-17T08:57:23.063Z,21.70
2018-07-17T08:59:51.856Z,21.80
2018-07-17T09:02:20.467Z,21.80
2018-07-17T09:04:49.014Z,21.60
2018-07-17T09:07:18.425Z,21.70
2018-07-17T09:09:47.097Z,21.70
2018-07-17T09:12:15.710Z,21.60
2018-07-17T09:14:44.469Z,21.60
2018-07-17T09:17:13.092Z,21.70
2018-07-17T09:22:10.060Z,21.70
2018-07-17T09:24:38.690Z,21.90
2018-07-17T09:27:07.497Z,21.90
2018-07-17T09:29:36.608Z,22.00
2018-07-17T09:32:05.592Z,22.00
2018-07-17T09:34:34.248Z,22.00
2018-07-17T09:37:03.180Z,21.90
2018-07-17T09:39:31.736Z,22.10
2018-07-17T09:42:00.432Z,22.00
2018-07-17T09:44:29.413Z,22.00
2018-07-17T09:46:58.026Z,22.10
2018-07-17T09:49:26.669Z,22.10
2018-07-17T09:51:55.587Z,22.00
2018-07-17T09:54:24.270Z,22.10
2018-07-17T09:56:52.825Z,22.20
2018-07-17T09:59:21.428Z,22.10
2018-07-17T10:01:55.238Z,22.00
2018-07-17T10:04:23.874Z,21.90
2018-07-17T10:06:52.532Z,21.90
2018-07-17T10:09:21.175Z,22.10
2018-07-17T10:11:49.810Z,22.00
2018-07-17T10:14:18.436Z,22.10
2018-07-17T10:16:47.157Z,22.20
2018-07-17T10:19:16.530Z,22.00
2018-07-17T10:21:45.417Z,22.00
2018-07-17T10:24:14.074Z,22.10
2018-07-17T10:26:43.615Z,22.00
2018-07-17T10:29:12.340Z,22.20
2018-07-17T10:34:09.455Z,22.00
2018-07-17T10:36:38.127Z,22.00
2018-07-17T10:39:08.688Z,22.00
2018-07-17T10:41:37.755Z,22.10
2018-07-17T10:44:06.769Z,22.00
2018-07-17T10:46:35.398Z,22.00
2018-07-17T10:49:04.143Z,21.90
2018-07-17T10:51:32.711Z,21.90
2018-07-17T10:54:01.521Z,21.90
2018-07-17T10:56:30.181Z,21.90
2018-07-17T10:58:59.211Z,21.80
2018-07-17T11:01:28.004Z,21.90
2018-07-17T11:03:57.212Z,21.80
2018-07-17T11:06:25.959Z,21.80
2018-07-17T11:08:54.594Z,21.80
2018-07-17T11:11:23.591Z,21.70
2018-07-17T11:13:52.278Z,21.80
2018-07-17T11:16:21.185Z,21.80
2018-07-17T11:18:50.063Z,21.50
2018-07-17T11:21:18.758Z,21.60
2018-07-17T11:23:47.737Z,21.70
2018-07-17T11:26:16.442Z,21.70
2018-07-17T11:28:45.118Z,21.60
2018-07-17T11:31:13.847Z,21.70
2018-07-17T11:33:42.523Z,21.50
2018-07-17T11:36:11.166Z,21.50
2018-07-17T11:38:40.009Z,21.50
2018-07-17T11:41:08.619Z,21.40
2018-07-17T11:43:37.259Z,21.40
2018-07-17T11:46:05.889Z,21.20
2018-07-17T11:48:34.544Z,21.30
2018-07-17T11:51:03.180Z,21.50
2018-07-17T11:53:31.952Z,21.40
2018-07-17T11:56:00.618Z,21.30
2018-07-17T11:58:29.682Z,21.20
2018-07-17T12:00:58.460Z,21.30
2018-07-17T12:03:27.096Z,21.40
2018-07-17T12:06:02.682Z,21.50
2018-07-17T12:08:33.152Z,21.70
2018-07-17T12:11:02.913Z,21.60
2018-07-17T12:13:31.497Z,21.70
2018-07-17T12:16:00.174Z,21.70
2018-07-17T12:18:28.764Z,21.70
2018-07-17T12:20:57.388Z,21.70
2018-07-17T12:23:26.040Z,21.80
2018-07-17T12:25:54.647Z,21.80
2018-07-17T12:28:23.459Z,21.90
2018-07-17T12:30:52.134Z,21.90
2018-07-17T12:33:20.780Z,21.80
2018-07-17T12:35:49.438Z,21.70
2018-07-17T12:38:18.072Z,21.90
2018-07-17T12:40:46.704Z,21.80
2018-07-17T12:43:15.736Z,21.90
2018-07-17T12:45:44.698Z,21.80
2018-07-17T12:48:13.709Z,21.90
2018-07-17T12:50:43.374Z,21.80
2018-07-17T12:53:12.444Z,22.00
2018-07-17T12:55:41.296Z,22.10
2018-07-17T12:58:09.850Z,22.10
2018-07-17T13:00:38.564Z,22.00
2018-07-17T13:03:07.592Z,22.10
2018-07-17T13:05:36.175Z,22.10
2018-07-17T13:08:04.774Z,22.10
2018-07-17T13:10:33.388Z,22.20
2018-07-17T13:13:02.036Z,22.20
2018-07-17T13:15:30.735Z,22.30
2018-07-17T13:17:59.410Z,22.30
2018-07-17T13:20:27.995Z,22.30
2018-07-17T13:22:56.588Z,22.20
2018-07-17T13:25:25.351Z,22.30
2018-07-17T13:27:53.929Z,22.30
2018-07-17T13:30:22.549Z,22.40
2018-07-17T13:32:51.133Z,22.40
2018-07-17T13:35:19.751Z,22.50
2018-07-17T13:37:48.346Z,22.60
2018-07-17T13:40:16.949Z,22.50
2018-07-17T13:42:45.702Z,22.60
2018-07-17T13:45:14.424Z,22.50
2018-07-17T13:47:43.473Z,22.50
2018-07-17T13:50:12.214Z,22.60
2018-07-17T13:52:40.925Z,22.50
2018-07-17T13:55:09.791Z,22.50
2018-07-17T13:57:39.078Z,22.70
2018-07-17T14:00:08.449Z,22.70
2018-07-17T14:02:36.961Z,22.70
2018-07-17T14:05:05.836Z,22.60
2018-07-17T14:07:34.539Z,22.70
2018-07-17T14:10:03.325Z,22.70
2018-07-17T14:12:31.894Z,22.70
2018-07-17T14:15:00.547Z,22.80
2018-07-17T14:17:29.319Z,22.90
2018-07-17T14:19:57.857Z,22.80
2018-07-17T14:22:26.520Z,22.90
2018-07-17T14:24:55.154Z,22.80
2018-07-17T14:27:24.723Z,23.00
2018-07-17T14:29:53.287Z,23.00
2018-07-17T14:32:22.043Z,23.10
2018-07-17T14:34:50.612Z,23.00
2018-07-17T14:37:19.243Z,22.90
2018-07-17T14:39:47.826Z,22.90
2018-07-17T14:42:16.530Z,23.00
2018-07-17T14:44:45.114Z,23.00
2018-07-17T14:47:13.837Z,22.90
2018-07-17T14:49:42.448Z,23.00
2018-07-17T14:52:11.117Z,23.00
2018-07-17T14:54:39.778Z,23.10
2018-07-17T14:57:08.418Z,23.10
2018-07-17T14:59:37.016Z,23.10
2018-07-17T15:02:05.674Z,23.10
2018-07-17T15:04:34.287Z,23.00
2018-07-17T15:07:02.865Z,23.00
2018-07-17T15:09:31.523Z,23.00
2018-07-17T15:12:00.066Z,22.90
2018-07-17T15:14:28.724Z,23.00
2018-07-17T15:16:57.395Z,23.00
2018-07-17T15:19:25.989Z,22.90
2018-07-17T15:21:54.684Z,23.10
2018-07-17T15:24:23.266Z,23.10
2018-07-17T15:26:51.931Z,23.10
2018-07-17T15:29:20.702Z,23.00
2018-07-17T15:31:49.397Z,23.00
2018-07-17T15:34:18.020Z,23.20
2018-07-17T15:36:46.654Z,23.10
2018-07-17T15:39:15.553Z,23.00
2018-07-17T15:41:44.227Z,23.10
2018-07-17T15:44:12.802Z,23.00
2018-07-17T15:46:41.353Z,23.00
2018-07-17T15:49:10.023Z,22.90
2018-07-17T15:51:38.693Z,23.00
2018-07-17T15:54:07.477Z,23.10
2018-07-17T15:56:36.173Z,23.20
2018-07-17T15:59:04.780Z,23.00
2018-07-17T16:01:33.680Z,23.00
2018-07-17T16:04:02.331Z,23.00
2018-07-17T16:06:31.201Z,23.00
2018-07-17T16:08:59.839Z,22.90
2018-07-17T16:11:28.471Z,22.90
2018-07-17T16:13:57.242Z,22.90
2018-07-17T16:16:25.756Z,22.90
2018-07-17T16:18:54.369Z,23.00
2018-07-17T16:21:23.093Z,23.00
2018-07-17T16:23:51.836Z,22.90
2018-07-17T16:26:20.536Z,22.70
2018-07-17T16:28:49.136Z,22.70
2018-07-17T16:31:18.831Z,22.70
2018-07-17T16:33:47.406Z,22.70
2018-07-17T16:36:16.082Z,22.50
2018-07-17T16:38:44.742Z,22.50
2018-07-17T16:41:13.374Z,22.60
2018-07-17T16:43:41.996Z,22.50
2018-07-17T16:46:10.595Z,22.50
2018-07-17T16:48:39.322Z,22.50
2018-07-17T16:51:07.901Z,22.50
2018-07-17T16:53:36.479Z,22.50
2018-07-17T16:56:05.161Z,22.40
2018-07-17T16:58:33.816Z,22.40
2018-07-17T17:01:02.442Z,22.40
2018-07-17T17:03:30.977Z,22.40
2018-07-17T17:05:59.541Z,22.40
2018-07-17T17:08:28.486Z,22.40
2018-07-17T17:10:57.226Z,22.20
2018-07-17T17:13:25.809Z,22.20
2018-07-17T17:15:54.548Z,22.20
2018-07-17T17:18:23.198Z,22.10
2018-07-17T17:20:52.214Z,22.00
2018-07-17T17:23:21.052Z,22.00
2018-07-17T17:25:49.790Z,22.10
2018-07-17T17:28:18.362Z,22.00
2018-07-17T17:30:47.440Z,21.90
2018-07-17T17:33:16.249Z,21.90
2018-07-17T17:35:45.163Z,21.80
2018-07-17T17:40:42.604Z,21.80
2018-07-17T17:43:12.683Z,21.60
2018-07-17T17:45:41.386Z,21.60
2018-07-17T17:48:09.999Z,21.50
2018-07-17T17:50:38.944Z,21.60
2018-07-17T17:53:07.647Z,21.40
2018-07-17T17:55:36.213Z,21.40
2018-07-17T17:58:04.938Z,21.50
2018-07-17T18:00:33.570Z,21.40
2018-07-17T18:03:02.202Z,21.30
2018-07-17T18:05:30.882Z,21.20
2018-07-17T18:07:59.412Z,21.10
2018-07-17T18:10:28.003Z,21.10
2018-07-17T18:15:26.043Z,21.00
2018-07-17T18:17:55.246Z,20.90
2018-07-17T18:20:24.045Z,20.80
2018-07-17T18:22:52.740Z,20.70
2018-07-17T18:25:21.481Z,20.70
2018-07-17T18:27:50.384Z,20.80
2018-07-17T18:32:48.609Z,20.70
2018-07-17T18:35:17.471Z,20.60
2018-07-17T18:37:46.060Z,20.60
2018-07-17T18:40:14.734Z,20.60
2018-07-17T18:42:43.348Z,20.60
2018-07-17T18:47:40.232Z,20.50
2018-07-17T18:50:12.865Z,20.40
2018-07-17T18:52:37.992Z,20.30
2018-07-17T18:55:06.830Z,20.30
2018-07-17T18:57:35.804Z,20.30
2018-07-17T19:00:05.397Z,20.40
2018-07-17T19:02:34.882Z,20.30
2018-07-17T19:05:03.461Z,20.20
2018-07-17T19:07:32.161Z,20.20
2018-07-17T19:10:01.900Z,20.10
2018-07-17T19:12:30.630Z,20.10
2018-07-17T19:14:59.671Z,20.00
2018-07-17T19:17:28.270Z,20.00
2018-07-17T19:19:56.862Z,19.90
2018-07-17T19:22:25.414Z,20.00
2018-07-17T19:24:54.247Z,19.90
2018-07-17T19:27:23.114Z,19.80
2018-07-17T19:29:51.787Z,19.80
2018-07-17T19:32:20.449Z,19.70
2018-07-17T19:34:49.206Z,19.70
2018-07-17T19:37:17.885Z,19.60
2018-07-17T19:39:46.817Z,19.60
2018-07-17T19:42:15.408Z,19.50
2018-07-17T19:44:44.537Z,19.50
2018-07-17T19:47:13.195Z,19.50
2018-07-17T19:49:41.736Z,19.40
2018-07-17T19:52:10.352Z,19.30
2018-07-17T19:54:38.964Z,19.30
2018-07-17T19:57:07.514Z,19.20
2018-07-17T19:59:36.607Z,19.10
2018-07-17T20:02:05.566Z,19.10
2018-07-17T20:04:34.301Z,19.00
2018-07-17T20:07:03.266Z,19.00
2018-07-17T20:09:31.824Z,18.90
2018-07-17T20:12:00.466Z,18.80
2018-07-17T20:14:29.048Z,18.80
2018-07-17T20:16:57.626Z,18.70
2018-07-17T20:19:26.976Z,18.60
2018-07-17T20:21:55.609Z,18.60
2018-07-17T20:24:24.496Z,18.60
2018-07-17T20:26:53.105Z,18.60
2018-07-17T20:29:21.778Z,18.50
2018-07-17T20:31:50.384Z,18.40
2018-07-17T20:34:18.941Z,18.40
2018-07-17T20:36:47.584Z,18.40
2018-07-17T20:39:16.710Z,18.40
2018-07-17T20:41:45.507Z,18.30
2018-07-17T20:44:14.156Z,18.30
2018-07-17T20:46:42.988Z,18.30
2018-07-17T20:49:11.834Z,18.40
2018-07-17T20:51:41.044Z,18.20
2018-07-17T20:54:09.628Z,18.30
2018-07-17T20:56:38.211Z,18.50
2018-07-17T20:59:06.753Z,18.30
2018-07-17T21:01:35.393Z,18.10
2018-07-17T21:04:04.260Z,18.10
2018-07-17T21:06:32.942Z,18.10
2018-07-17T21:09:02.022Z,18.20
2018-07-17T21:11:30.761Z,18.20
2018-07-17T21:13:59.645Z,18.10
2018-07-17T21:16:28.269Z,17.90
2018-07-17T21:18:57.119Z,17.80
2018-07-17T21:21:25.749Z,17.90
2018-07-17T21:23:54.285Z,17.90
2018-07-17T21:31:19.609Z,17.60
2018-07-17T21:33:48.425Z,17.50
2018-07-17T21:36:17.141Z,17.50
2018-07-17T21:38:45.864Z,17.60
2018-07-17T21:41:14.498Z,17.50
2018-07-17T21:43:43.534Z,17.30
2018-07-17T21:46:12.143Z,17.40
2018-07-17T21:51:09.029Z,17.70
2018-07-17T21:53:37.652Z,17.70
2018-07-17T21:56:06.456Z,17.90
2018-07-17T21:58:35.079Z,17.80
2018-07-17T22:01:03.669Z,17.80
2018-07-17T22:03:32.215Z,17.70
2018-07-17T22:06:00.813Z,17.60
2018-07-17T22:08:29.353Z,17.50
2018-07-17T22:10:58.095Z,17.40
2018-07-17T22:13:27.697Z,17.20
2018-07-17T22:15:56.794Z,17.00
2018-07-17T22:18:25.747Z,16.80
2018-07-17T22:20:54.353Z,16.70
2018-07-17T22:23:23.128Z,16.60
2018-07-17T22:25:51.786Z,16.70
2018-07-17T22:28:20.407Z,16.90
2018-07-17T22:30:49.039Z,16.90
2018-07-17T22:33:18.105Z,16.80
2018-07-17T22:35:46.684Z,16.80
2018-07-17T22:38:16.555Z,16.70
2018-07-17T22:40:45.117Z,16.70
2018-07-17T22:43:13.711Z,16.70
2018-07-17T22:48:10.588Z,16.60
2018-07-17T22:50:39.513Z,16.50
2018-07-17T22:53:08.006Z,16.30
2018-07-17T22:55:36.551Z,16.70
2018-07-17T22:58:05.128Z,16.50
2018-07-17T23:00:34.239Z,16.50
2018-07-17T23:03:02.890Z,16.40
2018-07-17T23:05:31.425Z,16.30
2018-07-17T23:08:00.054Z,16.50
2018-07-17T23:10:28.667Z,16.30
2018-07-17T23:12:57.596Z,16.40
2018-07-17T23:15:26.475Z,16.60
2018-07-17T23:17:55.040Z,16.60
2018-07-17T23:20:24.067Z,16.30
2018-07-17T23:22:55.029Z,16.10
2018-07-17T23:25:25.066Z,16.00
2018-07-17T23:27:54.338Z,16.10
2018-07-17T23:30:22.944Z,16.00
2018-07-17T23:32:52.067Z,16.10
2018-07-17T23:35:21.986Z,16.00
2018-07-17T23:37:51.298Z,16.10
2018-07-17T23:40:20.235Z,16.20
2018-07-17T23:42:48.863Z,16.10
2018-07-17T23:45:18.298Z,16.10
2018-07-17T23:47:47.759Z,16.20
2018-07-17T23:50:16.289Z,16.00
2018-07-17T23:52:44.854Z,15.90
2018-07-17T23:55:13.537Z,15.50
